Time;durP1;ratioP1;P1;durP2;ratioP2;P2;SDS_P1;SDS_P2;PMS_P1;PMS_P2;Temp;Humidity;BMP_temperature;BMP_pressure;BME280_temperature;BME280_humidity;BME280_pressure;Samples;Min_cycle;Max_cycle;Signal;HPM_P1;HPM_P2
2021/12/28 00:01:16;;;;;;;73.03;29.50;;;1.50;99.90;;;;;;5002455;28;20033;-61
2021/12/28 00:03:44;;;;;;;73.95;29.40;;;1.50;99.90;;;;;;5004661;28;20177;-61
2021/12/28 00:06:11;;;;;;;77.10;29.02;;;1.50;99.90;;;;;;5001031;28;20478;-61
2021/12/28 00:08:37;;;;;;;69.95;29.80;;;1.50;99.90;;;;;;5017769;28;20409;-61
2021/12/28 00:11:04;;;;;;;73.03;28.90;;;1.50;99.90;;;;;;5003380;28;20084;-61
2021/12/28 00:13:32;;;;;;;69.80;26.98;;;1.50;99.90;;;;;;5003791;28;20026;-61
2021/12/28 00:18:27;;;;;;;67.40;26.70;;;1.60;99.90;;;;;;5002675;28;20117;-61
2021/12/28 00:20:58;;;;;;;78.20;26.85;;;1.50;99.90;;;;;;5002473;28;20026;-61
2021/12/28 00:23:39;;;;;;;71.93;27.92;;;1.60;99.90;;;;;;5003178;28;21208;-61
2021/12/28 00:26:10;;;;;;;69.85;26.77;;;1.60;99.90;;;;;;5003472;28;20104;-61
2021/12/28 00:28:37;;;;;;;72.72;26.30;;;1.60;99.90;;;;;;5004369;28;20030;-61
2021/12/28 00:31:04;;;;;;;70.72;25.88;;;1.60;99.90;;;;;;5002009;28;20029;-61
2021/12/28 00:33:29;;;;;;;69.30;25.63;;;1.50;99.90;;;;;;5003894;28;20033;-61
2021/12/28 00:35:55;;;;;;;80.72;27.73;;;1.50;99.90;;;;;;5007373;28;20025;-61
2021/12/28 00:38:23;;;;;;;79.35;28.73;;;1.50;99.90;;;;;;5003045;28;20022;-61
2021/12/28 00:40:52;;;;;;;77.93;28.40;;;1.50;99.90;;;;;;5003129;28;20117;-60
2021/12/28 00:43:18;;;;;;;75.03;27.73;;;1.50;99.90;;;;;;5000359;28;20058;-61
2021/12/28 00:45:45;;;;;;;79.72;28.73;;;1.50;99.90;;;;;;5002708;28;20026;-61
2021/12/28 00:48:10;;;;;;;78.15;26.45;;;1.50;99.90;;;;;;5003257;28;20041;-61
2021/12/28 00:50:37;;;;;;;80.57;28.65;;;1.50;99.90;;;;;;5002072;28;20110;-61
2021/12/28 00:53:03;;;;;;;90.28;28.48;;;1.50;99.90;;;;;;5003561;28;20471;-60
2021/12/28 00:55:29;;;;;;;77.47;28.65;;;1.50;99.90;;;;;;5003425;28;20034;-60
2021/12/28 00:57:55;;;;;;;90.55;30.33;;;1.50;99.90;;;;;;5001029;28;20092;-61
2021/12/28 01:00:26;;;;;;;82.90;30.00;;;1.50;99.90;;;;;;5004016;28;20688;-61
2021/12/28 01:02:54;;;;;;;82.20;29.50;;;1.50;99.90;;;;;;5003193;28;20023;-61
2021/12/28 01:05:20;;;;;;;88.35;30.27;;;1.50;99.90;;;;;;5001937;28;20121;-61
2021/12/28 01:07:46;;;;;;;86.60;29.38;;;1.40;99.90;;;;;;5002128;28;20033;-61
2021/12/28 01:10:15;;;;;;;80.18;29.08;;;1.50;99.90;;;;;;5001061;28;20053;-61
2021/12/28 01:12:41;;;;;;;79.50;27.95;;;1.50;99.90;;;;;;5002480;28;20441;-60
2021/12/28 01:15:09;;;;;;;75.88;27.85;;;1.50;99.90;;;;;;5003904;28;20040;-61
2021/12/28 01:17:36;;;;;;;73.93;27.30;;;1.50;99.90;;;;;;5004246;28;20478;-61
2021/12/28 01:20:05;;;;;;;78.90;29.95;;;1.50;99.90;;;;;;5000791;28;20048;-61
2021/12/28 01:22:31;;;;;;;70.70;25.40;;;1.50;99.90;;;;;;5002967;28;20033;-61
2021/12/28 01:24:57;;;;;;;78.57;27.88;;;1.50;99.90;;;;;;5004044;28;20030;-61
2021/12/28 01:27:22;;;;;;;75.10;27.13;;;1.60;99.90;;;;;;5004741;28;20096;-61
2021/12/28 01:29:48;;;;;;;72.28;26.17;;;1.60;99.90;;;;;;5004432;28;20064;-61
2021/12/28 01:32:14;;;;;;;74.22;27.65;;;1.60;99.90;;;;;;5001638;28;20057;-60
2021/12/28 01:34:40;;;;;;;66.32;24.67;;;1.60;99.90;;;;;;5004670;28;20022;-60
2021/12/28 01:37:06;;;;;;;59.45;23.52;;;1.60;99.90;;;;;;5001800;28;20121;-61
2021/12/28 01:39:32;;;;;;;70.25;23.35;;;1.60;99.90;;;;;;5004847;28;20117;-60
2021/12/28 01:41:59;;;;;;;63.95;24.83;;;1.60;99.90;;;;;;4999957;28;20026;-60
2021/12/28 01:44:25;;;;;;;64.75;26.00;;;1.60;99.90;;;;;;5002692;28;20030;-60
2021/12/28 01:46:50;;;;;;;67.40;23.15;;;1.60;99.90;;;;;;5000593;28;20034;-60
2021/12/28 01:49:16;;;;;;;70.15;24.70;;;1.60;99.90;;;;;;5001412;28;20034;-61
2021/12/28 01:51:42;;;;;;;64.85;24.95;;;1.60;99.90;;;;;;5005692;28;20037;-61
2021/12/28 01:54:07;;;;;;;59.30;26.27;;;1.60;99.90;;;;;;5000194;28;20049;-61
2021/12/28 01:56:40;;;;;;;50.65;21.50;;;1.60;99.90;;;;;;5004007;28;20033;-61
2021/12/28 01:59:08;;;;;;;65.70;23.05;;;1.60;99.90;;;;;;5000661;28;20750;-60
2021/12/28 02:01:35;;;;;;;55.42;22.52;;;1.60;99.90;;;;;;5002103;28;20041;-61
2021/12/28 02:04:02;;;;;;;64.47;24.52;;;1.60;99.90;;;;;;5001670;28;20022;-60
2021/12/28 02:06:29;;;;;;;53.75;21.20;;;1.60;99.90;;;;;;4999457;28;20037;-60
2021/12/28 02:08:56;;;;;;;54.10;19.65;;;1.60;99.90;;;;;;5003006;28;20390;-60
2021/12/28 02:11:22;;;;;;;59.58;23.35;;;1.60;99.90;;;;;;5004980;28;20421;-60
2021/12/28 02:13:49;;;;;;;63.13;25.55;;;1.60;99.90;;;;;;5005672;28;21040;-61
2021/12/28 02:16:16;;;;;;;65.43;22.60;;;1.60;99.90;;;;;;5005925;28;20054;-61
2021/12/28 02:18:42;;;;;;;63.47;25.17;;;1.60;99.90;;;;;;5003705;28;20026;-61
2021/12/28 02:21:08;;;;;;;75.28;26.55;;;1.60;99.90;;;;;;5007831;28;20025;-61
2021/12/28 02:23:34;;;;;;;64.38;24.25;;;1.50;99.90;;;;;;5007327;28;20014;-60
2021/12/28 02:26:00;;;;;;;59.25;24.58;;;1.50;99.90;;;;;;5007584;28;20026;-60
2021/12/28 02:28:25;;;;;;;65.80;25.70;;;1.50;99.90;;;;;;5006831;28;20431;-60
2021/12/28 02:30:54;;;;;;;66.82;22.85;;;1.50;99.90;;;;;;5004725;28;20034;-61
2021/12/28 02:33:23;;;;;;;66.57;23.60;;;1.50;99.90;;;;;;5005586;28;20045;-60
2021/12/28 02:35:51;;;;;;;60.00;24.15;;;1.60;99.90;;;;;;5007510;28;20445;-61
2021/12/28 02:38:17;;;;;;;57.28;23.20;;;1.60;99.90;;;;;;5005843;28;20061;-61
2021/12/28 02:40:44;;;;;;;61.50;23.33;;;1.60;99.90;;;;;;5004435;28;20066;-60
2021/12/28 02:43:12;;;;;;;66.22;23.98;;;1.60;99.90;;;;;;5007178;28;20038;-60
2021/12/28 02:45:46;;;;;;;74.00;24.58;;;1.60;99.90;;;;;;5006464;28;20030;-60
2021/12/28 02:48:12;;;;;;;62.67;24.00;;;1.60;99.90;;;;;;5005040;28;20033;-61
2021/12/28 02:50:43;;;;;;;61.00;23.33;;;1.60;99.90;;;;;;5006436;28;20439;-60
2021/12/28 02:53:10;;;;;;;68.30;25.38;;;1.60;99.90;;;;;;5006733;28;20033;-60
2021/12/28 02:55:38;;;;;;;49.72;21.65;;;1.60;99.90;;;;;;5009310;28;20451;-60
2021/12/28 02:58:10;;;;;;;51.33;21.50;;;1.60;99.90;;;;;;5006357;28;20025;-60
2021/12/28 03:00:49;;;;;;;55.92;21.95;;;1.60;99.90;;;;;;5018303;28;20049;-61
2021/12/28 03:03:21;;;;;;;62.13;23.30;;;1.60;99.90;;;;;;5005644;28;20033;-61
2021/12/28 03:05:49;;;;;;;68.43;24.85;;;1.60;99.90;;;;;;5003890;28;20014;-61
2021/12/28 03:08:17;;;;;;;60.00;22.20;;;1.60;99.90;;;;;;5006372;28;20038;-61
2021/12/28 03:10:44;;;;;;;76.50;26.23;;;1.60;99.90;;;;;;5004154;28;20030;-60
2021/12/28 03:13:14;;;;;;;55.03;23.48;;;1.70;99.90;;;;;;5004516;28;20116;-60
2021/12/28 03:15:40;;;;;;;76.03;25.55;;;1.60;99.90;;;;;;5004195;28;20027;-60
2021/12/28 03:18:05;;;;;;;61.80;22.55;;;1.70;99.90;;;;;;5005585;28;20079;-60
2021/12/28 03:20:31;;;;;;;69.20;24.40;;;1.60;99.90;;;;;;5003279;28;20072;-61
2021/12/28 03:22:57;;;;;;;62.25;25.25;;;1.60;99.90;;;;;;5005755;28;20030;-60
2021/12/28 03:25:23;;;;;;;62.40;25.05;;;1.60;99.90;;;;;;5003940;28;20030;-60
2021/12/28 03:27:48;;;;;;;61.95;21.70;;;1.70;99.90;;;;;;5007135;28;20030;-61
2021/12/28 03:30:16;;;;;;;64.13;23.85;;;1.70;99.90;;;;;;5005554;28;20018;-61
2021/12/28 03:32:42;;;;;;;53.90;24.25;;;1.70;99.90;;;;;;5007254;28;20030;-61
2021/12/28 03:35:10;;;;;;;63.20;22.20;;;1.70;99.90;;;;;;5001919;28;20425;-60
2021/12/28 03:37:36;;;;;;;61.67;23.05;;;1.70;99.90;;;;;;5003753;28;20394;-61
2021/12/28 03:40:05;;;;;;;53.85;22.70;;;1.70;99.90;;;;;;5001567;28;20026;-61
2021/12/28 03:42:31;;;;;;;54.20;21.60;;;1.70;99.90;;;;;;5004999;28;20108;-60
2021/12/28 03:44:57;;;;;;;44.00;20.10;;;1.70;99.90;;;;;;5001775;28;20068;-60
2021/12/28 03:47:22;;;;;;;56.30;22.10;;;1.70;99.90;;;;;;5019429;28;20635;-60
2021/12/28 03:49:48;;;;;;;65.78;23.65;;;1.70;99.90;;;;;;5005265;28;20033;-61
2021/12/28 03:52:14;;;;;;;67.05;24.10;;;1.70;99.90;;;;;;5002461;28;20125;-60
2021/12/28 03:54:39;;;;;;;52.58;22.33;;;1.70;99.90;;;;;;5002527;28;20038;-60
2021/12/28 03:57:05;;;;;;;50.67;20.92;;;1.70;99.90;;;;;;5003730;28;20032;-60
2021/12/28 03:59:31;;;;;;;53.78;20.95;;;1.70;99.90;;;;;;5004229;28;20117;-60
2021/12/28 04:01:57;;;;;;;53.03;20.98;;;1.70;99.90;;;;;;5002685;28;20029;-60
2021/12/28 04:04:23;;;;;;;56.33;22.05;;;1.70;99.90;;;;;;5001041;28;20054;-60
2021/12/28 04:06:49;;;;;;;51.80;21.40;;;1.70;99.90;;;;;;5002711;28;20367;-60
2021/12/28 04:09:21;;;;;;;48.83;21.98;;;1.80;99.90;;;;;;4999613;28;20045;-60
2021/12/28 04:11:47;;;;;;;48.92;21.40;;;1.80;99.90;;;;;;5001762;28;20029;-61
2021/12/28 04:14:13;;;;;;;49.03;20.50;;;1.80;99.90;;;;;;5003673;28;20034;-61
2021/12/28 04:16:38;;;;;;;52.13;20.80;;;1.80;99.90;;;;;;5001163;28;20026;-60
2021/12/28 04:19:05;;;;;;;44.30;21.13;;;1.80;99.90;;;;;;5004790;28;20038;-60
2021/12/28 04:21:33;;;;;;;42.75;20.35;;;1.80;99.90;;;;;;5007974;28;20030;-60
2021/12/28 04:23:58;;;;;;;41.85;19.13;;;1.80;99.90;;;;;;5003299;28;20057;-60
2021/12/28 04:26:26;;;;;;;41.47;18.63;;;1.90;99.90;;;;;;5004596;28;20458;-60
2021/12/28 04:28:52;;;;;;;47.90;19.83;;;1.90;99.90;;;;;;5001984;28;20040;-61
2021/12/28 04:31:17;;;;;;;45.80;19.55;;;1.90;99.90;;;;;;5003848;28;20030;-60
2021/12/28 04:33:43;;;;;;;54.75;19.55;;;1.90;99.90;;;;;;5003855;28;20034;-61
2021/12/28 04:36:12;;;;;;;43.95;20.80;;;1.90;99.90;;;;;;5003728;28;20087;-61
2021/12/28 04:38:39;;;;;;;44.63;20.98;;;1.90;99.90;;;;;;5003582;28;20045;-60
2021/12/28 04:41:05;;;;;;;48.53;19.88;;;1.90;99.90;;;;;;5019798;28;20044;-60
2021/12/28 04:43:31;;;;;;;42.70;21.08;;;1.90;99.90;;;;;;5003199;28;20069;-60
2021/12/28 04:45:57;;;;;;;51.53;20.92;;;1.90;99.90;;;;;;5004217;28;20409;-61
2021/12/28 04:48:23;;;;;;;52.40;21.55;;;1.90;99.90;;;;;;5002920;28;20029;-60
2021/12/28 04:50:48;;;;;;;54.15;22.45;;;1.90;99.90;;;;;;5003056;28;20022;-60
2021/12/28 04:53:14;;;;;;;49.00;19.25;;;1.90;99.90;;;;;;5005295;28;20520;-61
2021/12/28 04:55:44;;;;;;;53.15;22.30;;;1.90;99.90;;;;;;5004330;28;20140;-60
2021/12/28 04:58:11;;;;;;;55.92;20.00;;;1.90;99.90;;;;;;5003257;28;20494;-60
2021/12/28 05:00:36;;;;;;;49.30;20.90;;;1.90;99.90;;;;;;5003279;28;21309;-61
2021/12/28 05:03:03;;;;;;;51.70;22.38;;;2.00;99.90;;;;;;5017713;28;20049;-60
2021/12/28 05:05:29;;;;;;;52.75;20.83;;;1.90;99.90;;;;;;5002023;28;20495;-60
2021/12/28 05:07:55;;;;;;;49.83;20.75;;;2.00;99.90;;;;;;5002187;28;20033;-60
2021/12/28 05:10:21;;;;;;;67.03;23.50;;;2.00;99.90;;;;;;5003095;28;20037;-60
2021/12/28 05:12:46;;;;;;;57.28;22.95;;;2.00;99.90;;;;;;5019608;28;20457;-60
2021/12/28 05:15:12;;;;;;;50.47;21.25;;;2.00;99.90;;;;;;5002759;28;20054;-61
2021/12/28 05:17:38;;;;;;;59.67;22.67;;;2.00;99.90;;;;;;5004046;28;20046;-60
2021/12/28 05:20:06;;;;;;;60.60;20.73;;;2.00;99.90;;;;;;5001796;28;20033;-60
2021/12/28 05:22:32;;;;;;;51.38;21.05;;;2.00;99.90;;;;;;5004312;28;20399;-60
2021/12/28 05:24:57;;;;;;;59.67;22.08;;;2.00;99.90;;;;;;5004762;28;20030;-60
2021/12/28 05:27:23;;;;;;;63.03;23.13;;;2.00;99.90;;;;;;5002509;28;20058;-61
2021/12/28 05:29:49;;;;;;;61.83;22.40;;;2.00;99.90;;;;;;5000739;28;20037;-61
2021/12/28 05:32:15;;;;;;;58.72;20.45;;;2.00;99.90;;;;;;5004366;28;20030;-60
2021/12/28 05:34:41;;;;;;;64.55;22.95;;;2.00;99.90;;;;;;5001893;28;20386;-60
2021/12/28 05:37:07;;;;;;;61.33;22.70;;;2.00;99.90;;;;;;5002362;28;20029;-61
2021/12/28 05:39:33;;;;;;;66.95;24.75;;;2.00;99.90;;;;;;5003870;28;20033;-60
2021/12/28 05:41:59;;;;;;;65.53;23.23;;;2.00;99.90;;;;;;5004774;28;20033;-60
2021/12/28 05:44:25;;;;;;;66.45;22.85;;;2.00;99.90;;;;;;5007515;28;20069;-61
2021/12/28 05:46:51;;;;;;;77.50;26.23;;;2.00;99.90;;;;;;5011955;28;20062;-61
2021/12/28 05:49:17;;;;;;;76.13;23.25;;;2.00;99.90;;;;;;5007585;28;20034;-60
2021/12/28 05:51:43;;;;;;;76.57;23.80;;;2.00;99.90;;;;;;5006883;28;20040;-60
2021/12/28 05:54:09;;;;;;;69.28;20.77;;;2.00;99.90;;;;;;5006249;28;20042;-60
2021/12/28 05:56:35;;;;;;;64.70;22.83;;;2.00;99.90;;;;;;5005906;28;20022;-60
2021/12/28 05:59:00;;;;;;;83.53;25.30;;;2.00;99.90;;;;;;5007579;28;20494;-60
2021/12/28 06:01:26;;;;;;;85.10;25.10;;;2.00;99.90;;;;;;5001337;28;20124;-60
2021/12/28 06:03:53;;;;;;;87.88;26.73;;;2.00;99.90;;;;;;5003181;28;20119;-60
2021/12/28 06:06:18;;;;;;;81.13;25.50;;;2.00;99.90;;;;;;5005333;28;20057;-61
2021/12/28 06:08:44;;;;;;;92.18;28.58;;;2.00;99.90;;;;;;5005955;28;20033;-60
2021/12/28 06:11:12;;;;;;;73.15;23.23;;;2.00;99.90;;;;;;5005075;28;20042;-60
2021/12/28 06:13:41;;;;;;;83.35;25.73;;;2.00;99.90;;;;;;5007448;28;20106;-60
2021/12/28 06:16:08;;;;;;;89.60;27.02;;;2.10;99.90;;;;;;5008970;28;20033;-60
2021/12/28 06:18:34;;;;;;;86.75;25.65;;;2.10;99.90;;;;;;5005599;28;20030;-60
2021/12/28 06:21:00;;;;;;;88.22;24.65;;;2.10;99.90;;;;;;5008738;28;20072;-61
2021/12/28 06:23:25;;;;;;;88.32;22.30;;;2.10;99.90;;;;;;5007747;28;20108;-61
2021/12/28 06:25:51;;;;;;;86.22;23.38;;;2.10;99.90;;;;;;5006986;28;20202;-60
2021/12/28 06:28:17;;;;;;;85.15;23.15;;;2.10;99.90;;;;;;5005620;28;20113;-60
2021/12/28 06:30:43;;;;;;;88.82;24.63;;;2.10;99.90;;;;;;5007450;28;20038;-60
2021/12/28 06:33:09;;;;;;;67.82;21.73;;;2.10;99.90;;;;;;5008509;28;20464;-60
2021/12/28 06:35:34;;;;;;;66.95;18.63;;;2.10;99.90;;;;;;5009370;28;20026;-61
2021/12/28 06:38:00;;;;;;;79.78;21.92;;;2.10;99.90;;;;;;5005195;28;20029;-60
2021/12/28 06:40:27;;;;;;;72.05;22.40;;;2.10;99.90;;;;;;5003699;28;20490;-61
2021/12/28 06:42:53;;;;;;;75.38;21.10;;;2.20;99.90;;;;;;5006611;28;20034;-60
2021/12/28 06:45:19;;;;;;;79.93;25.00;;;2.20;99.90;;;;;;5004542;28;20036;-61
2021/12/28 06:47:46;;;;;;;54.05;16.33;;;2.20;99.90;;;;;;5005070;28;20026;-60
2021/12/28 06:50:11;;;;;;;89.53;25.10;;;2.20;99.90;;;;;;5004670;28;20042;-60
2021/12/28 06:52:38;;;;;;;78.32;23.63;;;2.20;99.90;;;;;;5005479;28;20474;-60
2021/12/28 06:55:06;;;;;;;84.22;23.38;;;2.10;99.90;;;;;;5004001;28;20049;-60
2021/12/28 06:57:32;;;;;;;86.53;23.90;;;2.10;99.90;;;;;;5003747;28;20042;-60
2021/12/28 06:59:58;;;;;;;84.47;23.73;;;2.10;99.90;;;;;;5006394;28;20022;-60
2021/12/28 07:02:23;;;;;;;92.43;23.83;;;2.10;99.90;;;;;;5006074;28;20029;-60
2021/12/28 07:04:50;;;;;;;83.35;23.77;;;2.10;99.90;;;;;;5003131;28;20461;-60
2021/12/28 07:07:16;;;;;;;82.10;23.65;;;2.00;99.90;;;;;;5004443;28;20053;-61
2021/12/28 07:09:42;;;;;;;84.38;24.10;;;2.00;99.90;;;;;;5004479;28;20064;-60
2021/12/28 07:12:09;;;;;;;70.88;22.73;;;2.00;99.90;;;;;;5006194;28;20022;-60
2021/12/28 07:14:34;;;;;;;88.15;25.35;;;2.10;99.90;;;;;;5003308;28;20017;-61
2021/12/28 07:17:00;;;;;;;82.78;25.00;;;2.10;99.90;;;;;;5002554;28;20061;-61
2021/12/28 07:19:26;;;;;;;83.63;24.08;;;2.00;99.90;;;;;;5005688;28;20121;-60
2021/12/28 07:21:52;;;;;;;80.85;23.60;;;2.00;99.90;;;;;;5002862;28;20493;-60
2021/12/28 07:24:19;;;;;;;93.32;24.33;;;2.10;99.90;;;;;;5008896;28;20036;-61
2021/12/28 07:26:44;;;;;;;86.20;24.00;;;2.00;99.90;;;;;;5007333;28;20025;-60
2021/12/28 07:29:11;;;;;;;71.93;22.55;;;2.10;99.90;;;;;;5003543;28;20040;-60
2021/12/28 07:31:37;;;;;;;73.10;23.45;;;2.10;99.90;;;;;;5000767;28;20048;-60
2021/12/28 07:34:03;;;;;;;65.43;19.77;;;2.10;99.90;;;;;;5003738;28;20042;-60
2021/12/28 07:36:29;;;;;;;57.80;20.70;;;2.10;99.90;;;;;;5001965;28;20112;-60
2021/12/28 07:38:54;;;;;;;68.03;19.42;;;2.10;99.90;;;;;;5004029;28;20433;-61
2021/12/28 07:41:21;;;;;;;59.00;19.67;;;2.10;99.90;;;;;;5002967;28;20109;-60
2021/12/28 07:43:47;;;;;;;62.15;19.27;;;2.10;99.90;;;;;;5002200;28;20027;-60
2021/12/28 07:46:13;;;;;;;46.15;16.60;;;2.20;99.90;;;;;;5005124;28;20045;-61
2021/12/28 07:48:39;;;;;;;60.67;20.38;;;2.20;99.90;;;;;;5002073;28;20486;-60
2021/12/28 07:51:04;;;;;;;63.95;22.00;;;2.20;99.90;;;;;;5006320;28;20449;-60
2021/12/28 07:53:30;;;;;;;60.67;18.88;;;2.20;99.90;;;;;;5002822;28;20121;-61
2021/12/28 07:55:57;;;;;;;54.78;19.73;;;2.20;99.90;;;;;;5005858;28;20385;-61
2021/12/28 07:58:24;;;;;;;61.67;20.23;;;2.10;99.90;;;;;;5002877;28;20030;-60
2021/12/28 08:00:50;;;;;;;69.85;25.25;;;2.10;99.90;;;;;;5001142;28;20037;-60
2021/12/28 08:03:15;;;;;;;70.97;24.38;;;2.10;99.90;;;;;;5004500;28;20413;-60
2021/12/28 08:05:41;;;;;;;68.75;22.65;;;2.10;99.90;;;;;;5003565;28;20026;-60
2021/12/28 08:08:07;;;;;;;75.65;21.83;;;2.10;99.90;;;;;;5002711;28;20034;-60
2021/12/28 08:10:33;;;;;;;64.63;22.23;;;2.10;99.90;;;;;;5001779;28;20582;-60
2021/12/28 08:12:58;;;;;;;63.00;20.25;;;2.10;99.90;;;;;;5003709;28;20026;-61
2021/12/28 08:15:26;;;;;;;66.63;21.15;;;2.20;99.90;;;;;;5006607;28;20112;-60
2021/12/28 08:17:52;;;;;;;55.50;20.27;;;2.20;99.90;;;;;;5004775;28;20022;-60
2021/12/28 08:20:18;;;;;;;58.72;19.83;;;2.20;99.90;;;;;;5003860;28;20029;-60
2021/12/28 08:22:45;;;;;;;67.32;20.90;;;2.20;99.90;;;;;;5005569;28;20437;-61
2021/12/28 08:25:13;;;;;;;59.70;19.55;;;2.30;99.90;;;;;;5002775;28;20122;-60
2021/12/28 08:27:40;;;;;;;61.08;22.05;;;2.30;99.90;;;;;;5003342;28;20504;-61
2021/12/28 08:30:07;;;;;;;54.95;20.65;;;2.30;99.90;;;;;;5005373;28;20025;-61
2021/12/28 08:32:32;;;;;;;67.63;20.17;;;2.30;99.90;;;;;;5004054;28;20033;-61
2021/12/28 08:34:58;;;;;;;65.82;21.38;;;2.30;99.90;;;;;;5002203;28;20026;-61
2021/12/28 08:37:24;;;;;;;66.88;22.40;;;2.30;99.90;;;;;;5003607;28;20030;-60
2021/12/28 08:39:49;;;;;;;59.47;20.98;;;2.30;99.90;;;;;;5004218;28;20022;-61
2021/12/28 08:42:15;;;;;;;71.38;22.75;;;2.30;99.90;;;;;;5001875;28;20022;-60
2021/12/28 08:44:41;;;;;;;68.00;20.30;;;2.30;99.90;;;;;;5007419;28;20367;-60
2021/12/28 08:47:07;;;;;;;66.53;22.48;;;2.40;99.90;;;;;;5003860;28;20034;-61
2021/12/28 08:49:33;;;;;;;61.55;23.50;;;2.40;99.90;;;;;;5003308;28;20113;-60
2021/12/28 08:51:58;;;;;;;64.75;22.63;;;2.40;99.90;;;;;;5004245;28;20071;-61
2021/12/28 08:54:24;;;;;;;59.33;21.27;;;2.40;99.90;;;;;;5001046;28;20465;-60
2021/12/28 08:56:51;;;;;;;61.67;21.95;;;2.40;99.90;;;;;;5017593;28;20101;-61
2021/12/28 08:59:18;;;;;;;61.75;20.45;;;2.40;99.90;;;;;;5002392;28;20030;-61
2021/12/28 09:01:44;;;;;;;64.18;20.70;;;2.40;99.90;;;;;;5003363;28;20037;-60
2021/12/28 09:04:09;;;;;;;50.60;16.83;;;2.40;99.90;;;;;;5001361;28;20072;-60
2021/12/28 09:06:35;;;;;;;53.55;19.73;;;2.40;99.90;;;;;;5000946;28;20034;-60
2021/12/28 09:09:01;;;;;;;52.38;18.13;;;2.50;99.90;;;;;;4998449;28;20029;-60
2021/12/28 09:11:26;;;;;;;60.85;19.27;;;2.50;99.90;;;;;;5004205;28;20038;-61
2021/12/28 09:13:52;;;;;;;38.90;16.88;;;2.50;99.90;;;;;;5000324;28;20033;-60
2021/12/28 09:16:18;;;;;;;44.95;16.55;;;2.50;99.90;;;;;;4999834;28;20053;-61
2021/12/28 09:18:43;;;;;;;48.47;16.70;;;2.50;99.90;;;;;;4998074;28;20052;-60
2021/12/28 09:21:09;;;;;;;45.40;17.02;;;2.60;99.90;;;;;;5000905;28;20034;-61
2021/12/28 09:23:37;;;;;;;41.95;17.83;;;2.60;99.90;;;;;;5002415;28;20022;-60
2021/12/28 09:26:04;;;;;;;45.30;17.83;;;2.60;99.90;;;;;;5004122;28;20454;-61
2021/12/28 09:28:29;;;;;;;37.22;17.65;;;2.70;99.90;;;;;;5002780;28;20038;-61
2021/12/28 09:30:55;;;;;;;33.13;14.75;;;2.70;99.90;;;;;;5001391;28;20034;-60
2021/12/28 09:33:21;;;;;;;37.42;15.57;;;2.80;99.90;;;;;;5000878;28;20026;-60
2021/12/28 09:35:47;;;;;;;34.83;13.90;;;2.80;99.90;;;;;;5005085;28;20021;-61
2021/12/28 09:38:13;;;;;;;38.70;15.23;;;2.80;99.90;;;;;;5002445;28;20030;-60
2021/12/28 09:40:39;;;;;;;31.30;14.70;;;2.90;99.90;;;;;;4998664;28;20027;-60
2021/12/28 09:43:07;;;;;;;34.22;14.90;;;2.90;99.90;;;;;;5003734;28;20113;-60
2021/12/28 09:45:34;;;;;;;32.28;14.77;;;2.90;99.90;;;;;;5001729;28;20026;-60
2021/12/28 09:48:00;;;;;;;31.73;15.98;;;3.00;99.90;;;;;;5002122;28;20021;-60
2021/12/28 09:50:27;;;;;;;31.10;14.15;;;3.00;99.90;;;;;;5004106;28;20037;-60
2021/12/28 09:52:53;;;;;;;29.45;15.05;;;3.10;99.90;;;;;;5001732;28;20026;-61
2021/12/28 09:55:23;;;;;;;26.75;14.00;;;3.10;99.90;;;;;;4998763;28;20128;-61
2021/12/28 09:57:50;;;;;;;28.45;13.65;;;3.20;99.90;;;;;;5000737;28;20435;-60
2021/12/28 10:00:17;;;;;;;24.48;13.85;;;3.30;99.90;;;;;;5004075;28;20050;-61
2021/12/28 10:02:43;;;;;;;23.02;14.43;;;3.30;99.90;;;;;;5000135;28;20030;-60
2021/12/28 10:05:12;;;;;;;30.92;11.95;;;3.30;99.90;;;;;;5000892;28;20034;-60
2021/12/28 10:07:56;;;;;;;20.10;12.85;;;3.30;99.90;;;;;;5003186;28;20069;-61
2021/12/28 10:10:25;;;;;;;24.70;14.00;;;3.30;99.90;;;;;;5000608;28;20124;-60
2021/12/28 10:12:53;;;;;;;27.13;13.75;;;3.40;99.90;;;;;;5000650;28;20034;-60
2021/12/28 10:15:25;;;;;;;22.65;12.32;;;3.40;99.90;;;;;;5003126;28;20030;-61
2021/12/28 10:17:55;;;;;;;27.08;13.98;;;3.40;99.90;;;;;;5002961;28;20044;-60
2021/12/28 10:20:44;;;;;;;23.23;12.75;;;3.40;99.90;;;;;;5003827;28;20073;-61
2021/12/28 10:23:16;;;;;;;20.58;12.70;;;3.50;99.90;;;;;;5001875;28;20029;-61
2021/12/28 10:25:54;;;;;;;23.58;12.63;;;3.50;99.90;;;;;;5002872;28;20390;-61
2021/12/28 10:28:31;;;;;;;19.48;11.70;;;3.50;99.90;;;;;;5000936;28;20497;-61
2021/12/28 10:31:10;;;;;;;17.17;11.73;;;3.50;99.90;;;;;;5005835;28;20030;-60
2021/12/28 10:33:38;;;;;;;17.90;11.27;;;3.50;99.90;;;;;;5004743;28;20061;-61
2021/12/28 10:36:13;;;;;;;21.95;11.45;;;3.40;99.90;;;;;;5005334;28;20018;-60
2021/12/28 10:38:50;;;;;;;20.83;11.10;;;3.40;99.90;;;;;;5019409;28;20034;-61
2021/12/28 10:41:20;;;;;;;19.13;10.40;;;3.40;99.90;;;;;;5022826;28;20497;-61
2021/12/28 10:43:50;;;;;;;21.27;11.82;;;3.40;99.90;;;;;;5005649;28;20034;-61
2021/12/28 10:46:19;;;;;;;18.75;11.63;;;3.40;99.90;;;;;;5003891;28;20037;-60
2021/12/28 10:48:47;;;;;;;14.65;9.40;;;3.50;99.90;;;;;;5006206;28;20038;-60
2021/12/28 10:51:30;;;;;;;22.48;10.95;;;3.50;99.90;;;;;;5005167;28;20034;-61
2021/12/28 10:54:12;;;;;;;15.07;10.10;;;3.50;99.90;;;;;;5005309;28;20030;-61
2021/12/28 10:56:41;;;;;;;15.10;9.35;;;3.50;99.90;;;;;;4995934;28;20133;-61
2021/12/28 10:59:09;;;;;;;14.55;9.77;;;3.60;99.90;;;;;;5003976;28;20033;-60
2021/12/28 11:01:38;;;;;;;13.25;9.68;;;3.50;99.90;;;;;;5004081;28;20026;-61
2021/12/28 11:04:13;;;;;;;18.70;10.15;;;3.60;99.90;;;;;;5005508;28;20088;-60
2021/12/28 11:06:50;;;;;;;16.85;9.18;;;3.60;99.90;;;;;;5020388;28;20034;-61
2021/12/28 11:09:18;;;;;;;17.83;11.00;;;3.60;99.90;;;;;;5001810;28;20027;-60
2021/12/28 11:11:46;;;;;;;14.02;9.05;;;3.60;99.90;;;;;;5005606;28;20458;-61
2021/12/28 11:14:17;;;;;;;13.88;9.38;;;3.70;99.90;;;;;;5005449;28;20038;-61
2021/12/28 11:16:54;;;;;;;13.63;8.63;;;3.70;99.90;;;;;;5005205;28;20052;-61
2021/12/28 11:19:32;;;;;;;13.25;8.98;;;3.60;99.90;;;;;;5003659;28;20521;-61
2021/12/28 11:22:02;;;;;;;12.15;8.25;;;3.60;99.90;;;;;;5006483;28;20631;-61
2021/12/28 11:24:30;;;;;;;18.52;11.55;;;3.50;99.90;;;;;;5015298;28;20042;-61
2021/12/28 11:26:55;;;;;;;15.38;10.32;;;3.50;99.90;;;;;;5019820;28;20022;-61
2021/12/28 11:29:31;;;;;;;13.48;8.48;;;3.60;99.90;;;;;;5002175;28;20081;-61
2021/12/28 11:32:01;;;;;;;17.10;11.48;;;3.60;99.90;;;;;;4999639;28;20077;-61
2021/12/28 11:34:33;;;;;;;17.33;9.60;;;3.60;99.90;;;;;;4996764;28;20041;-60
2021/12/28 11:37:12;;;;;;;11.82;9.10;;;3.60;99.90;;;;;;5004730;28;20050;-61
2021/12/28 11:39:43;;;;;;;16.73;9.93;;;3.60;99.90;;;;;;5003693;28;20022;-61
2021/12/28 11:42:11;;;;;;;12.80;8.85;;;3.60;99.90;;;;;;5002504;28;20109;-61
2021/12/28 11:44:36;;;;;;;10.02;8.63;;;3.60;99.90;;;;;;5006230;28;20024;-61
2021/12/28 11:47:05;;;;;;;11.50;8.88;;;3.70;99.90;;;;;;5003744;28;20033;-61
2021/12/28 11:49:31;;;;;;;13.38;8.50;;;3.70;99.90;;;;;;5005101;28;20049;-61
2021/12/28 11:52:00;;;;;;;11.65;8.45;;;3.70;99.90;;;;;;5005068;28;20525;-61
2021/12/28 11:54:28;;;;;;;12.45;9.90;;;3.70;99.90;;;;;;5006707;28;20061;-61
2021/12/28 11:57:00;;;;;;;15.73;9.82;;;3.70;99.90;;;;;;5004357;28;20079;-61
2021/12/28 11:59:30;;;;;;;11.13;9.27;;;3.80;99.90;;;;;;5004369;28;20045;-61
2021/12/28 12:01:58;;;;;;;14.32;8.63;;;3.80;99.90;;;;;;5002834;28;20026;-61
2021/12/28 12:04:30;;;;;;;15.75;8.43;;;3.80;99.90;;;;;;5018652;28;20516;-61
2021/12/28 12:07:14;;;;;;;11.13;9.43;;;3.90;99.90;;;;;;5004552;28;20034;-61
2021/12/28 12:09:49;;;;;;;12.02;8.93;;;4.00;99.90;;;;;;5017571;28;20033;-61
2021/12/28 12:12:35;;;;;;;8.98;7.45;;;4.00;99.90;;;;;;5013368;28;20065;-61
2021/12/28 12:15:01;;;;;;;11.18;9.57;;;3.90;99.90;;;;;;5005503;28;20017;-61
2021/12/28 12:17:43;;;;;;;12.48;7.95;;;3.90;99.90;;;;;;5003290;28;20056;-61
2021/12/28 12:20:33;;;;;;;11.35;8.75;;;4.00;99.90;;;;;;5003046;28;20041;-61
2021/12/28 12:23:06;;;;;;;8.55;7.60;;;4.00;99.90;;;;;;5002065;28;20026;-61
2021/12/28 12:25:43;;;;;;;10.10;7.40;;;4.00;99.90;;;;;;5003931;28;20108;-61
2021/12/28 12:28:10;;;;;;;8.07;7.13;;;4.00;99.90;;;;;;5004060;28;20494;-61
2021/12/28 12:30:47;;;;;;;8.85;7.35;;;4.00;99.90;;;;;;5001148;28;20065;-61
2021/12/28 12:33:14;;;;;;;9.23;7.53;;;3.90;99.90;;;;;;5001538;28;20044;-61
2021/12/28 12:35:46;;;;;;;9.70;7.53;;;3.90;99.90;;;;;;5002019;28;20477;-61
2021/12/28 12:38:14;;;;;;;10.52;7.88;;;3.90;99.90;;;;;;5004309;28;20455;-61
2021/12/28 12:41:04;;;;;;;8.32;7.43;;;3.90;99.90;;;;;;5001795;28;20409;-61
2021/12/28 12:43:39;;;;;;;8.32;6.70;;;3.90;99.90;;;;;;5007308;28;20076;-61